Etusivu
METAR-TAF:

METAR-TAF

Lentoasemat :

Mannheim, Saksa

Leveyspiiri: 49-28-21N, Pituuspiiri: 008-30-56E, korkeus merenpinnasta: 100 m

Tämänhetkinen sää

Tämä raportti tehtiin 48 minuuttia sitten, kello 04.50 UTC
Tuuli 2 kn lännestä
Lämpötila 0°C
Kosteus 100%
Ilmanpaine 1011 hPa
Näkyvyys: 6000 m

METAR: EDFM 210450Z 27002KT 6000 NSC 00/00 Q1011

Aika: 06:38 (05:38 UTC)

Sääennuste

Tämä raportti tehtiin 12 tuntia ja 38 minuuttia sitten, kello 17.00 UTC
Ennuste voimassa 20. päivästä klo 18 UTC - 20. päivään klo 21 UTC
Tuuli 4 kn pohjoisesta/koillisesta
Näkyvyys 10 km tai enemmän
Hajanaisia pilviä 300 ft:n korkeudessa
Hajonneita pilviä 4000 ft:n korkeudessa
Todennäköisyys 30% :
Ajoittain
20. päivästä klo 18 UTC - 20. päivään klo 21 UTC
Näkyvyys: 4000 m
Hajonneita pilviä 300 ft:n korkeudessa
utua

TAF: EDFM 201700Z 2018/2021 02004KT 9999 SCT003 BKN040 PROB30 TEMPO 2018/2021 4000 BR BKN003

Säähavainnot ja -ennusteet yli 4000 lentoasemalta (METAR- ja TAF-raportit).

Käytössä olevat sääasemat on merkitty karttaan keltaisilla ja punaisilla pisteillä.

Aseta hiiri pisteen päälle nähdäksesi sääaseman nimen.

Klikkaa sitten nähdäksesi säähavainnot ja -ennusteet.

Kartan vaihtaminen: klikkaa mustalla rastilla varustettuja vihreitä pisteitä, niin voit zoomata sisään; viivalla varustettua vihreää pistettä, niin voit zoomata ulos tai vihreitä nuolia, niin pääset viereisille kartoille.


METAR-TAF: